Friday, October 31, 2014
10:47 UTC
  |  Log In   |  Register Free
Airport Search:

New Richmond Regional Airport
(KRNH)

New Richmond Regional Airport Diagram
No Airport Diagram Available

FAA data valid effective September 18, 2014 - November 13, 2014 (unless otherwise noted).

 
 
 
 
 
 
 
 
 
 
 
 
 
 

Current Aviation Weather for New Richmond Regional Airport (KRNH)

The most recent METAR observation for KRNH was updated at: 1017
METAR Summary (Translated METAR)
KRNH
310955Z AUTO 36012KT 10SM OVC038 M02/M08 A3044 RMK AO2 T10211085
KOEO
310955Z AUTO 33005KT 10SM SCT039 M02/M08 A3048 RMK AO2 T10211080
(11.6 nm NW from KRNH)
K21D
310951Z AUTO 35006G09KT 10SM SCT034 M02/M07 A3046 RMK AO2
(16.2 nm SW from KRNH)
TAF Summary (Translated TAF)
KRNH
310520Z 3106/0106 34013G21KT P6SM FEW050 FM311000 35013KT P6SM SCT045 FM311300 35012G18KT P6SM BKN045 FM311800 36008KT P6SM FEW040 FM312300 35005KT P6SM SKC
  Airport Weather Conditions for KRNH

 Current Weather at RNH
28° F
Overcast
North winds at 13.8 mph
RNH NOAA Radar

Pressure: 30.44 in
Humidity: 62%
Wind: North at 13.8 MPH (12 KT)
Dew Point: 16.7°F
Visibility: 10.00 mi


Airport Weather Forecast for KRNH

Translated METAR and TAF for KRNH
Translated METAR for KRNH (1042 UTC 31 October 2014)
found at http://aviationweather.gov/adds/metars/
 
METAR text: KRNH 311035Z AUTO 35011G15KT 10SM BKN036 M02/M08 A3045 RMK AO2 T10231083
Conditions at: KRNH (NEW RICHMOND MUN, WI, US) observed 1035 UTC 31 October 2014
Temperature: -2.3°C (28°F)
Dewpoint: -8.3°C (17°F) [RH = 63%]
Pressure (altimeter): 30.45 inches Hg (1031.2 mb)
Winds: from the N (350 degrees) at 13 MPH (11 knots; 5.7 m/s)
gusting to 17 MPH (15 knots; 7.8 m/s)
Visibility: 10 or more miles (16+ km)
Ceiling: 3600 feet AGL
Clouds: broken clouds at 3600 feet AGL
Weather: automated observation with no human augmentation;
there may or may not be significant weather present at this time
Translated TAF for KRNH
Forecast for: KRNH (NEW RICHMOND MUN, WI, US)
TAF Text: KRNH 310520Z 3106/0106 34013G21KT P6SM FEW050
Forecast period: 0600 to 1000 UTC 31 October 2014
Forecast type: FROM: standard forecast or significant change
Winds: from the NNW (340 degrees) at 15 MPH (13 knots; 6.8 m/s)
gusting to 24 MPH (21 knots; 10.9 m/s)
Visibility: 6 or more miles (10+ km)
Clouds: few clouds at 5000 feet AGL
Weather: no significant weather forecast for this period
TAF Text: FM311000 35013KT P6SM SCT045
Forecast period: 1000 to 1300 UTC 31 October 2014
Forecast type: FROM: standard forecast or significant change
Winds: from the N (350 degrees) at 15 MPH (13 knots; 6.8 m/s)
Visibility: 6 or more miles (10+ km)
Clouds: scattered clouds at 4500 feet AGL
Weather: no significant weather forecast for this period
TAF Text: FM311300 35012G18KT P6SM BKN045
Forecast period: 1300 to 1800 UTC 31 October 2014
Forecast type: FROM: standard forecast or significant change
Winds: from the N (350 degrees) at 14 MPH (12 knots; 6.2 m/s)
gusting to 21 MPH (18 knots; 9.4 m/s)
Visibility: 6 or more miles (10+ km)
Ceiling: 4500 feet AGL
Clouds: broken clouds at 4500 feet AGL
Weather: no significant weather forecast for this period
TAF Text: FM311800 36008KT P6SM FEW040
Forecast period: 1800 to 2300 UTC 31 October 2014
Forecast type: FROM: standard forecast or significant change
Winds: from the N (360 degrees) at 9 MPH (8 knots; 4.2 m/s)
Visibility: 6 or more miles (10+ km)
Clouds: few clouds at 4000 feet AGL
Weather: no significant weather forecast for this period
TAF Text: FM312300 35005KT P6SM SKC
Forecast period: 2300 UTC 31 October 2014 to 0600 UTC 01 November 2014
Forecast type: FROM: standard forecast or significant change
Winds: from the N (350 degrees) at 6 MPH (5 knots; 2.6 m/s)
Visibility: 6 or more miles (10+ km)
Clouds: clear skies
Weather: no significant weather forecast for this period

Find All Airport Services Find A Hotel Find A Rental Car Find A Golf Course Find A Restaurant $100 Hamburger



FBO's on the Field
FBO Company Facility Photos Services Transportation Aviation Fuel Prices: Prices include tax
Catering Weather Repair Courtesy Rental Type 100LL JetA JetA+ MOGAS 8087
 
Griggs Aviation

This FBO has not yet been rated
FS:Independent
Last Updated: Oct-21
Login to update fuel prices
SS:
Contact Griggs AviationMore FBO Information
 
Add another FBO Facility Photos Catering Weather Repair Courtesy Rental Type 100LL JetA JetA+ MOGAS 8087
Services Transportation Aviation Fuel Prices: Prices include tax


model-print
model-print
model-print
model-print